Tiempo atmosférico en la estación meteorológica de Llorac, Tarragona (660 m.)



Fecha
DESCASC
Temp. máxima en grados centígrados (hora)
DESCASC
Temp. mínima en grados centígrados (hora)
DESCASC
Temp. media en grados centígrados
DESCASC
Racha de viento máxima en m/sg (hora)
DESCASC
Velocidad máxima media en intervalos de 10 minutos(hora)
DESCASC
Precipitaciones diarias en mm
DESCASC
Precipitaciones de 00:00 a 06:00 en mm
DESCASC
Precipitaciones de 06:00 a 12:00 en mm
DESCASC
Precipitaciones de 12:00 a 18:00 en mm
DESCASC
Precipitaciones de 18:00 a 24:00 en mm
DESCASC
20-09-2020 23.7 (17:20) 12.9 (00:00) 18.3 10.28 (04:20) 7.22 (04:20) 0 0 0 0 0
19-09-2020 24.4 (16:20) 12.9 (23:59) 18.6 9.17 (16:00) 5.83 (17:00) 0.8 0 0.2 0.6 0
17-09-2020 28.1 (17:10) 11.5 (00:00) 19.8 7.22 (14:40) 4.17 (22:40) 0 0 0 0 0
16-09-2020 30.5 (14:20) 11.2 (07:20) 20.8 8.06 (18:10) 4.44 (18:20) 0 0 0 0 0
15-09-2020 29.7 (15:50) 10.6 (00:00) 20.2 7.78 (18:10) 4.72 (18:00) 0 0 0 0 0
14-09-2020 29 (15:10) 8.6 (00:00) 18.8 8.33 (18:00) 4.72 (18:00) 0 0 0 0 0
13-09-2020 30.2 (14:30) 10.9 (00:00) 20.6 7.78 (16:00) 4.17 (16:30) 0 0 0 0 0
12-09-2020 29.3 (16:30) 10.2 (07:30) 19.7 7.22 (18:10) 3.89 (18:10) 0 0 0 0 0
11-09-2020 28.1 (17:10) 10.7 (00:00) 19.4 7.22 (14:40) 5 (10:30) 0 0 0 0 0
10-09-2020 26.2 (17:20) 10.3 (00:00) 18.3 11.11 (18:30) 6.11 (18:40) 2.2 0.2 0 0 2
09-09-2020 18.8 (17:30) 11.6 (03:00) 15.2 5.83 (19:10) 3.89 (19:10) 13 0.8 1.2 10 1
08-09-2020 24.8 (14:50) 6.1 (00:00) 15.4 8.89 (14:10) 5 (14:00) 1.2 0 0 0 1.2
07-09-2020 24.1 (17:00) 10.4 (07:50) 17.3 8.89 (14:40) 5.28 (02:20) 0 0 0 0 0
06-09-2020 25.8 (17:10) 12.9 (00:00) 19.3 10 (17:50) 6.94 (09:10) 0 0 0 0 0
05-09-2020 29.8 (16:40) 13.1 (00:00) 21.4 6.94 (19:00) 4.72 (22:50) 0 0 0 0 0
04-09-2020 28.3 (16:10) 10.8 (00:00) 19.5 7.78 (18:50) 4.44 (18:00) 0 0 0 0 0
03-09-2020 28.4 (16:00) 9.8 (00:00) 19.1 7.78 (18:40) 4.17 (18:40) 0 0 0 0 0
02-09-2020 24.9 (16:30) 9.8 (00:00) 17.3 10 (16:00) 6.11 (16:00) 0 0 0 0 0
01-09-2020 24.7 (17:20) 7 (00:00) 15.9 7.78 (16:00) 4.44 (18:10) 0 0 0 0 0
31-08-2020 22.8 (18:10) 5.2 (00:00) 14 8.61 (14:50) 5.83 (11:30) 0 0 0 0 0
30-08-2020 22.2 (17:40) 7.7 (00:00) 15 9.44 (11:00) 7.22 (10:50) 0 0 0 0 0
29-08-2020 21.1 (16:50) 13 (00:00) 17.1 10.83 (12:20) 7.5 (12:00) 1.4 0 1.2 0.2 0
28-08-2020 28.4 (16:10) 18 (00:00) 23.2 10.28 (21:00) 5 (21:00) 0 0 0 0 0
27-08-2020 30.3 (16:10) 18.3 (00:00) 24.3 7.22 (15:20) 5.28 (22:40) 0 0 0 0 0
26-08-2020 31.2 (16:10) 15.2 (00:00) 23.2 7.5 (18:30) 4.44 (18:20) 0 0 0 0 0
25-08-2020 31.6 (17:20) 13.8 (00:00) 22.7 11.11 (15:10) 4.72 (15:10) 0 0 0 0 0
24-08-2020 28.3 (17:30) 10 (07:40) 19.1 7.5 (15:40) 5 (16:40) 0 0 0 0 0
23-08-2020 28.7 (17:50) 12.8 (00:00) 20.8 9.17 (13:10) 6.11 (13:50) 0 0 0 0 0
22-08-2020 30.3 (16:10) 17 (00:00) 23.6 10.56 (18:00) 6.11 (14:10) 0 0 0 0 0

Gráficas

Temp. máximas Temp. mínimas Temp. medias Precipitaciones Rachas de viento máximas Velocidades máximas media en intervalos de 10 minutos

Datos horarios

Fecha y hora oficial Temperatura (ºC) Velocidad del viento (km/h) Dirección del viento Racha (km/h) Dirección de racha Precipitación (mm) Presión (hPa) Tendencia (hPa) Humedad (%)
2020-09-20 23:00:00 14.4 5 Sudeste 9 Sudeste 0 -- -- 93
2020-09-20 22:00:00 14.9 5 Sudeste 9 Sudeste 0 -- -- 90
2020-09-20 21:00:00 16.7 6 Sudeste 14 Sur 0 -- -- 81
2020-09-20 20:00:00 19.6 9 Sudoeste 18 Sudoeste 0 -- -- 69
2020-09-20 19:00:00 22.8 12 Oeste 22 Oeste 0 -- -- 50
2020-09-20 18:00:00 22.8 16 Noroeste 26 Noroeste 0 -- -- 47
2020-09-20 17:00:00 23.6 17 Oeste 27 Noroeste 0 -- -- 46
2020-09-20 16:00:00 23 18 Noroeste 29 Noroeste 0 -- -- 48
2020-09-20 15:00:00 22.7 17 Oeste 33 Noroeste 0 -- -- 52
2020-09-20 14:00:00 21.7 23 Noroeste 35 Noroeste 0 -- -- 54
2020-09-20 13:00:00 20.7 17 Noroeste 27 Noroeste 0 -- -- 60
2020-09-20 12:00:00 19.3 18 Oeste 29 Noroeste 0 -- -- 67
2020-09-20 11:00:00 18 22 Noroeste 29 Oeste 0 -- -- 73
2020-09-20 10:00:00 16.9 18 Oeste 28 Noroeste 0 -- -- 77
2020-09-20 09:00:00 15.3 16 Noroeste 22 Noroeste 0 -- -- 85
2020-09-20 08:00:00 13.5 7 Noroeste 22 Noroeste 0 -- -- 90
2020-09-20 07:00:00 14.4 14 Noroeste 30 Oeste 0 -- -- 87
2020-09-20 06:00:00 14.9 16 Oeste 28 Oeste 0 -- -- 85
2020-09-20 05:00:00 15.4 24 Noroeste 37 Noroeste 0 -- -- 83
2020-09-20 04:00:00 15.5 17 Noroeste 29 Oeste 0 -- -- 84
2020-09-20 03:00:00 15.8 19 Noroeste 33 Noroeste 0 -- -- 83
2020-09-20 02:00:00 15.5 16 Noroeste 26 Oeste 0 -- -- 84
2020-09-20 01:00:00 13.5 7 Noroeste 15 Noroeste 0 -- -- 91
2020-09-20 00:00:00 12.9 6 Sudeste 8 Sudeste 0 -- -- 94
2020-09-19 23:00:00 13.8 0 Calma 7 Noroeste 0 -- -- 91
2020-09-19 22:00:00 14.4 0 Calma 5 Norte 0 -- -- 88
2020-09-19 21:00:00 16.7 0 Calma 5 Oeste 0 -- -- 78
2020-09-19 20:00:00 20.2 4 Noroeste 22 Noroeste 0 -- -- 61
2020-09-19 19:00:00 23 16 Noroeste 27 Noroeste 0 -- -- 51
2020-09-19 18:00:00 23.6 20 Noroeste 31 Noroeste 0 -- -- 49
2020-09-19 17:00:00 23.3 21 Noroeste 32 Oeste 0 -- -- 52
2020-09-19 16:00:00 24.3 18 Noroeste 33 Noroeste 0 -- -- 51
2020-09-19 15:00:00 23.8 20 Oeste 31 Noroeste 0 -- -- 54
2020-09-19 14:00:00 23 12 Noroeste 18 Noroeste 0.2 -- -- 66
2020-09-19 13:00:00 18.8 8 Noroeste 33 Oeste 0.4 -- -- 86
2020-09-19 12:00:00 22 9 Sur 16 Sudeste 0 -- -- 71
2020-09-19 11:00:00 21.2 8 Sur 19 Sur 0 -- -- 73
2020-09-19 10:00:00 19.4 6 Sudeste 9 Sudeste 0 -- -- 90
2020-09-19 09:00:00 16.2 6 Sudeste 10 Sudeste 0 -- -- 98
2020-09-19 08:00:00 16.2 3 Nordeste 10 Oeste 0 -- -- 96
2020-09-19 07:00:00 17.7 9 Noroeste 17 Noroeste 0.2 -- -- 94
2020-09-19 06:00:00 17.6 2 Sudeste 17 Sudeste 0 -- -- 95
2020-09-19 05:00:00 17.5 8 Sudeste 15 Sur 0 -- -- 96
2020-09-19 04:00:00 17.8 8 Sur 16 Sur 0 -- -- 94
2020-09-19 03:00:00 17.1 12 Sudeste 22 Sur 0 -- -- 94
2020-09-19 02:00:00 16.6 9 Sudeste 14 Sudeste 0 -- -- 95
2020-09-19 01:00:00 17.4 6 Sudeste 14 Sudeste 0 -- -- 95
2020-09-19 00:00:00 17.9 9 Sudeste 26 Sudeste 0 -- -- 94
2020-09-18 23:00:00 18.3 8 Sudeste 19 Este 0 -- -- 92
2020-09-18 22:00:00 18 11 Este 24 Sudeste 0 -- -- 91
2020-09-18 21:00:00 18.2 19 Sudeste 32 Sudeste 0 -- -- 90
2020-09-18 20:00:00 18.9 18 Sudeste 28 Sudeste 0.2 -- -- 86
2020-09-18 19:00:00 19.3 21 Sudeste 32 Sudeste 0 -- -- 83
2020-09-18 18:00:00 20.3 12 Este 22 Sudeste 0 -- -- 81
2020-09-18 17:00:00 20.3 15 Sudeste 24 Sudeste 0 -- -- 81
2020-09-18 16:00:00 20 14 Sudeste 26 Sudeste 0 -- -- 82
2020-09-18 15:00:00 20.1 12 Sudeste 28 Sudeste 0 -- -- 84
2020-09-18 14:00:00 19.5 15 Sudeste 23 Sudeste 0.2 -- -- 88
2020-09-18 13:00:00 17.4 9 Sudeste 17 Sudeste 4 -- -- 96
2020-09-18 12:00:00 18 8 Sudeste 18 Sudeste 4.8 -- -- 93
2020-09-18 11:00:00 18.6 5 Sudeste 17 Sudeste 0.6 -- -- 94
2020-09-18 10:00:00 19.5 11 Sudeste 23 Sudeste 0.2 -- -- 87
2020-09-18 09:00:00 19.7 13 Sudeste 20 Este 0 -- -- 83
2020-09-18 08:00:00 19.3 10 Sudeste 18 Sudeste 0 -- -- 74
2020-09-18 07:00:00 18.6 5 Sudeste 16 Este 0 -- -- 69
2020-09-18 06:00:00 18.3 9 Sudeste 17 Sudeste 0 -- -- 68
2020-09-18 05:00:00 17.8 11 Sudeste 15 Sudeste 0 -- -- 68
2020-09-18 04:00:00 16.8 6 Sudeste 11 Sudeste 0 -- -- 78
2020-09-18 03:00:00 18.6 9 Sudeste 21 Sudeste 0 -- -- 82
2020-09-18 02:00:00 19 13 Sudeste 22 Sudeste 0 -- -- 79
2020-09-18 01:00:00 19.7 13 Sudeste 21 Sudeste 0 -- -- 70
2020-09-18 00:00:00 20.1 13 Sudeste 24 Sudeste 0 -- -- 63
2020-09-17 23:00:00 20.9 13 Sudeste 22 Sudeste 0 -- -- 57
2020-09-17 22:00:00 21 8 Sudeste 14 Sudeste 0 -- -- 60
2020-09-17 21:00:00 21.4 10 Sudeste 17 Sudeste 0 -- -- 65
2020-09-17 20:00:00 22.4 8 Sudeste 18 Sur 0 -- -- 59
2020-09-17 19:00:00 23.3 10 Sur 22 Sudoeste 0 -- -- 56
2020-09-17 18:00:00 25.3 11 Sur 25 Sudeste 0 -- -- 43
2020-09-17 17:00:00 27.8 6 Sur 19 Sudoeste 0 -- -- 31
2020-09-17 16:00:00 26.6 11 Sudoeste 20 Sur 0 -- -- 38
2020-09-17 15:00:00 26.5 10 Sur 26 Sur 0 -- -- 39
2020-09-17 14:00:00 27.2 6 Sudoeste 21 Sudeste 0 -- -- 38
2020-09-17 13:00:00 26.7 6 Sudoeste 24 Sudoeste 0 -- -- 38
2020-09-17 12:00:00 26.2 12 Sur 19 Sur 0 -- -- 38
2020-09-17 11:00:00 22.3 7 Sudeste 12 Sudeste 0 -- -- 55
2020-09-17 10:00:00 17.5 5 Este 9 Sudeste 0 -- -- 87
2020-09-17 09:00:00 15.2 7 Sudeste 12 Sudeste 0 -- -- 90
2020-09-17 08:00:00 12.1 8 Sudeste 14 Sudeste 0 -- -- 96
2020-09-17 07:00:00 11.5 9 Sudeste 12 Sudeste 0 -- -- 95
2020-09-17 06:00:00 11.7 10 Sudeste 13 Sudeste 0 -- -- 95
2020-09-17 05:00:00 11.8 10 Sudeste 13 Sudeste 0 -- -- 94
2020-09-17 04:00:00 12.5 11 Sudeste 16 Sudeste 0 -- -- 94
2020-09-17 03:00:00 12.6 9 Sudeste 13 Sudeste 0 -- -- 93
2020-09-17 02:00:00 13.2 12 Sudeste 14 Sudeste 0 -- -- 93
2020-09-17 01:00:00 14 9 Sudeste 13 Sudeste 0 -- -- 92
2020-09-17 00:00:00 15 9 Sudeste 13 Sudeste 0 -- -- 93
2020-09-16 23:00:00 15.7 7 Sudeste 11 Sudeste 0 -- -- 91
2020-09-16 22:00:00 17.2 8 Sudeste 15 Sudeste 0 -- -- 87
2020-09-16 21:00:00 19.6 10 Sudeste 21 Este 0 -- -- 79
2020-09-16 20:00:00 21.3 14 Sudeste 23 Sudeste 0 -- -- 75
2020-09-16 19:00:00 23.3 12 Sudeste 29 Sudeste 0 -- -- 68
2020-09-16 18:00:00 25.7 14 Sur 25 Sudeste 0 -- -- 58
2020-09-16 17:00:00 27.5 12 Sur 27 Sudeste 0 -- -- 53
2020-09-16 16:00:00 27.1 16 Sudeste 24 Sudeste 0 -- -- 54
2020-09-16 15:00:00 28.5 15 Sudeste 24 Sudeste 0 -- -- 49
2020-09-16 14:00:00 29.3 8 Sudoeste 15 Oeste 0 -- -- 36
2020-09-16 13:00:00 28.5 8 Oeste 16 Oeste 0 -- -- 40
2020-09-16 12:00:00 27.5 5 Oeste 12 Oeste 0 -- -- 42
2020-09-16 11:00:00 26.2 3 Sudeste 7 Sur 0 -- -- 47
2020-09-16 10:00:00 21.5 0 Calma 5 Sudeste 0 -- -- 68
2020-09-16 09:00:00 14.6 5 Sudeste 8 Sudeste 0 -- -- 93
2020-09-16 08:00:00 11.3 5 Sudeste 8 Sudeste 0 -- -- 98
2020-09-16 07:00:00 11.3 7 Sudeste 8 Sudeste 0 -- -- 97
2020-09-16 06:00:00 11.8 5 Sudeste 8 Sudeste 0 -- -- 96
2020-09-16 05:00:00 12.7 3 Sudeste 7 Sudeste 0 -- -- 95
2020-09-16 04:00:00 13 5 Sudeste 11 Sudeste 0 -- -- 95
2020-09-16 03:00:00 13.6 6 Sudeste 8 Sudeste 0 -- -- 95
2020-09-16 02:00:00 14.6 3 Sudeste 10 Este 0 -- -- 93
2020-09-16 01:00:00 15.3 5 Sudeste 13 Sudeste 0 -- -- 92
2020-09-16 00:00:00 16 5 Sudeste 9 Sudeste 0 -- -- 90
2020-09-15 23:00:00 17.8 4 Sudeste 13 Este 0 -- -- 87
2020-09-15 22:00:00 19.5 3 Este 16 Este 0 -- -- 83
2020-09-15 21:00:00 20.7 8 Este 19 Sur 0 -- -- 78
2020-09-15 20:00:00 21.9 8 Sur 22 Sudeste 0 -- -- 72
2020-09-15 19:00:00 23.6 13 Sur 28 Sudoeste 0 -- -- 63
2020-09-15 18:00:00 24.8 17 Sudoeste 27 Sur 0 -- -- 64
2020-09-15 17:00:00 26.9 15 Sudoeste 26 Sudoeste 0 -- -- 56
2020-09-15 16:00:00 28.8 7 Noroeste 19 Noroeste 0 -- -- 34
2020-09-15 15:00:00 28.3 13 Oeste 24 Oeste 0 -- -- 36
2020-09-15 14:00:00 27.8 10 Oeste 19 Oeste 0 -- -- 41
2020-09-15 13:00:00 26 10 Noroeste 19 Oeste 0 -- -- 44
2020-09-15 12:00:00 25.7 7 Noroeste 18 Noroeste 0 -- -- 44
2020-09-15 11:00:00 25.1 9 Noroeste 16 Noroeste 0 -- -- 45
2020-09-15 10:00:00 23.5 8 Sur 15 Sudeste 0 -- -- 49
2020-09-15 09:00:00 16.3 6 Oeste 14 Sur 0 -- -- 76
2020-09-15 08:00:00 11.8 7 Sudeste 11 Sudeste 0 -- -- 96
2020-09-15 07:00:00 10.6 5 Sudeste 9 Sudeste 0 -- -- 95
2020-09-15 06:00:00 11.2 6 Sudeste 12 Sudeste 0 -- -- 93
2020-09-15 05:00:00 11.8 5 Sudeste 12 Sudeste 0 -- -- 92
2020-09-15 04:00:00 12.6 8 Sudeste 12 Sudeste 0 -- -- 90
2020-09-15 03:00:00 14 3 Este 9 Sudeste 0 -- -- 82
2020-09-15 02:00:00 12.8 5 Sudeste 10 Sudeste 0 -- -- 87
2020-09-15 01:00:00 14.6 7 Sudeste 10 Sudeste 0 -- -- 82
2020-09-15 00:00:00 14.7 7 Sudeste 10 Sudeste 0 -- -- 86
2020-09-14 23:00:00 16.7 8 Sudeste 12 Sudeste 0 -- -- 81
2020-09-14 22:00:00 18.8 5 Sudeste 15 Sudeste 0 -- -- 73
2020-09-14 21:00:00 20.2 9 Sudeste 21 Sudeste 0 -- -- 68
2020-09-14 20:00:00 22.1 13 Sudeste 21 Sudeste 0 -- -- 59
2020-09-14 19:00:00 23.5 6 Sur 24 Sudeste 0 -- -- 56
2020-09-14 18:00:00 26.4 17 Sudeste 30 Sudeste 0 -- -- 42
2020-09-14 17:00:00 25.9 14 Sur 25 Sudeste 0 -- -- 47
2020-09-14 16:00:00 27.8 14 Sur 26 Sudeste 0 -- -- 39
2020-09-14 15:00:00 28.5 12 Sudeste 29 Sudeste 0 -- -- 37
2020-09-14 14:00:00 28.6 13 Sudeste 26 Sudeste 0 -- -- 36
2020-09-14 13:00:00 27.8 12 Sudeste 19 Sudeste 0 -- -- 35
2020-09-14 12:00:00 27.4 11 Sudeste 19 Sudeste 0 -- -- 37
2020-09-14 11:00:00 26.3 5 Sur 17 Sudeste 0 -- -- 39
2020-09-14 10:00:00 22.1 3 Sudeste 9 Sudeste 0 -- -- 56
2020-09-14 09:00:00 13.5 8 Sudeste 9 Sudeste 0 -- -- 82
2020-09-14 08:00:00 8.8 7 Sudeste 10 Sudeste 0 -- -- 95
2020-09-14 07:00:00 8.7 7 Sudeste 10 Sudeste 0 -- -- 94
2020-09-14 06:00:00 9.2 8 Sudeste 11 Sudeste 0 -- -- 93
2020-09-14 05:00:00 9.8 7 Sudeste 10 Sudeste 0 -- -- 92
2020-09-14 04:00:00 10.6 8 Sudeste 11 Sudeste 0 -- -- 89
2020-09-14 03:00:00 11.6 10 Sudeste 12 Sudeste 0 -- -- 86
2020-09-14 02:00:00 12.5 9 Sudeste 12 Sudeste 0 -- -- 84
2020-09-14 01:00:00 13.4 9 Sudeste 12 Sudeste 0 -- -- 81
2020-09-14 00:00:00 14.7 8 Sudeste 12 Sudeste 0 -- -- 76
2020-09-13 23:00:00 16.7 7 Sudeste 10 Sudeste 0 -- -- 70
2020-09-13 22:00:00 18 8 Sudeste 10 Sudeste 0 -- -- 67
2020-09-13 21:00:00 20.6 8 Sudeste 15 Sudeste 0 -- -- 58
2020-09-13 20:00:00 23.3 10 Sudeste 19 Sur 0 -- -- 50
2020-09-13 19:00:00 25.8 10 Sur 22 Sur 0 -- -- 45
2020-09-13 18:00:00 27.3 14 Sudoeste 23 Sudoeste 0 -- -- 40
2020-09-13 17:00:00 28.3 11 Sudoeste 25 Sur 0 -- -- 40
2020-09-13 16:00:00 28.8 14 Sur 28 Sudoeste 0 -- -- 38
2020-09-13 15:00:00 29.8 12 Sur 24 Sur 0 -- -- 35
2020-09-13 14:00:00 29.3 9 Sur 20 Sudoeste 0 -- -- 37
2020-09-13 13:00:00 28.9 10 Sudoeste 23 Oeste 0 -- -- 37
2020-09-13 12:00:00 28.1 10 Sudeste 17 Sur 0 -- -- 40
2020-09-13 11:00:00 26.5 6 Noroeste 10 Oeste 0 -- -- 43
2020-09-13 10:00:00 22 3 Noroeste 6 Noroeste 0 -- -- 61
2020-09-13 09:00:00 15 5 Sudeste 8 Sudeste 0 -- -- 87
2020-09-13 08:00:00 11.1 5 Sudeste 6 Sudeste 0 -- -- 97
2020-09-13 07:00:00 11 5 Sudeste 8 Sudeste 0 -- -- 96
2020-09-13 06:00:00 11.3 6 Sudeste 8 Sudeste 0 -- -- 95
2020-09-13 05:00:00 12 5 Sudeste 7 Sudeste 0 -- -- 93
2020-09-13 04:00:00 12.5 6 Sudeste 10 Sudeste 0 -- -- 91
2020-09-13 03:00:00 13.6 6 Sudeste 15 Sudeste 0 -- -- 87
2020-09-13 02:00:00 13.9 4 Sudeste 12 Sudeste 0 -- -- 85
2020-09-13 01:00:00 14.7 10 Sudeste 14 Sudeste 0 -- -- 82
2020-09-13 00:00:00 15.3 8 Sudeste 13 Sudeste 0 -- -- 79
2020-09-12 23:00:00 15.5 9 Sudeste 14 Sudeste 0 -- -- 80
2020-09-12 22:00:00 16.7 7 Sudeste 11 Sudeste 0 -- -- 77
2020-09-12 21:00:00 19.7 6 Sudeste 17 Sur 0 -- -- 65
2020-09-12 20:00:00 22.6 7 Sudeste 21 Sur 0 -- -- 55
2020-09-12 19:00:00 25.3 11 Sur 26 Sudoeste 0 -- -- 46
2020-09-12 18:00:00 27 13 Sudoeste 24 Oeste 0 -- -- 42
2020-09-12 17:00:00 27.5 10 Sur 22 Oeste 0 -- -- 41
2020-09-12 16:00:00 27.6 10 Oeste 21 Noroeste 0 -- -- 40
2020-09-12 15:00:00 27.8 8 Oeste 17 Oeste 0 -- -- 38
2020-09-12 14:00:00 27.9 10 Noroeste 16 Noroeste 0 -- -- 38
2020-09-12 13:00:00 27.1 9 Noroeste 17 Oeste 0 -- -- 40
2020-09-12 12:00:00 25.8 8 Noroeste 15 Oeste 0 -- -- 45
2020-09-12 11:00:00 24.2 10 Oeste 15 Oeste 0 -- -- 50
2020-09-12 10:00:00 20.8 3 Noroeste 6 Noroeste 0 -- -- 69
2020-09-12 09:00:00 14.4 5 Sudeste 7 Sudeste 0 -- -- 94
2020-09-12 08:00:00 10.3 5 Sudeste 7 Sudeste 0 -- -- 99
2020-09-12 07:00:00 10.5 4 Sudeste 8 Sudeste 0 -- -- 98
2020-09-12 06:00:00 11 4 Sudeste 8 Sudeste 0 -- -- 98
2020-09-12 05:00:00 11.7 5 Sudeste 8 Sudeste 0 -- -- 96
2020-09-12 04:00:00 12.3 6 Sudeste 8 Sudeste 0 -- -- 95
2020-09-12 03:00:00 13 6 Sudeste 9 Sudeste 0 -- -- 94
2020-09-12 02:00:00 14.1 8 Sudeste 14 Sudeste 0 -- -- 92
2020-09-12 01:00:00 14.9 5 Sudeste 13 Sudeste 0 -- -- 89
2020-09-12 00:00:00 17.1 6 Sudeste 15 Sudeste 0 -- -- 81
2020-09-11 23:00:00 17.6 8 Sudeste 15 Este 0 -- -- 81
2020-09-11 22:00:00 18.5 10 Sudeste 18 Sudeste 0 -- -- 78
2020-09-11 21:00:00 19.7 11 Sudeste 17 Sudeste 0 -- -- 74
2020-09-11 20:00:00 21.8 9 Sur 24 Sudeste 0 -- -- 55
2020-09-11 19:00:00 24.4 13 Sur 24 Sur 0 -- -- 50
2020-09-11 18:00:00 26.3 12 Sur 22 Sur 0 -- -- 44
2020-09-11 17:00:00 27.9 6 Sur 20 Oeste 0 -- -- 35
2020-09-11 16:00:00 27.5 8 Noroeste 26 Oeste 0 -- -- 37
2020-09-11 15:00:00 26.6 13 Noroeste 26 Noroeste 0 -- -- 40
2020-09-11 14:00:00 25.4 13 Noroeste 22 Noroeste 0 -- -- 46
2020-09-11 13:00:00 23.4 15 Noroeste 24 Noroeste 0 -- -- 55
2020-09-11 12:00:00 22.4 12 Oeste 19 Oeste 0 -- -- 59
2020-09-11 11:00:00 20 14 Noroeste 25 Noroeste 0 -- -- 68
2020-09-11 10:00:00 18 17 Noroeste 23 Noroeste 0 -- -- 74
2020-09-11 09:00:00 15.9 6 Noroeste 14 Noroeste 0 -- -- 84
2020-09-11 08:00:00 11.1 3 Norte 9 Norte 0 -- -- 100
2020-09-11 07:00:00 10.9 2 Sudeste 4 Sudeste 0 -- -- 99
2020-09-11 06:00:00 11.9 2 Sudeste 6 Sudeste 0 -- -- 98
2020-09-11 05:00:00 12.7 5 Sudeste 7 Sudeste 0 -- -- 98
2020-09-11 04:00:00 13.8 3 Norte 6 Sudeste 0 -- -- 97
2020-09-11 03:00:00 15.1 0 Calma 6 Este 0 -- -- 97
2020-09-11 02:00:00 15.4 4 Sudeste 6 Sudeste 0 -- -- 97
2020-09-11 01:00:00 15.5 3 Este 8 Sudeste 0 -- -- 97
2020-09-11 00:00:00 15.5 4 Sudeste 8 Sudeste 0 -- -- 96
2020-09-10 23:00:00 15.6 7 Sudeste 12 Sudeste 0 -- -- 96
2020-09-10 22:00:00 16.1 5 Sudeste 15 Este 0 -- -- 91
2020-09-10 21:00:00 16 4 Sudeste 18 Sudeste 0 -- -- 93
2020-09-10 20:00:00 17.4 14 Sudeste 20 Sudeste 2 -- -- 85
2020-09-10 19:00:00 18.9 14 Sudeste 40 Sudeste 0 -- -- 71
2020-09-10 18:00:00 22.4 15 Este 33 Este 0 -- -- 54
2020-09-10 17:00:00 25.6 8 Oeste 22 Noroeste 0 -- -- 44
2020-09-10 16:00:00 25.5 9 Noroeste 22 Noroeste 0 -- -- 44
2020-09-10 15:00:00 24.2 12 Oeste 22 Noroeste 0 -- -- 51
2020-09-10 14:00:00 22.8 13 Oeste 24 Oeste 0 -- -- 57
2020-09-10 13:00:00 21.2 16 Oeste 27 Oeste 0 -- -- 65
2020-09-10 12:00:00 19.4 18 Noroeste 30 Oeste 0 -- -- 74
2020-09-10 11:00:00 18.8 19 Noroeste 25 Noroeste 0 -- -- 77
2020-09-10 10:00:00 17.7 13 Noroeste 18 Noroeste 0 -- -- 81
2020-09-10 09:00:00 15 2 Sur 10 Noroeste 0 -- -- 100
2020-09-10 08:00:00 11.4 3 Noroeste 6 Sudeste 0 -- -- 100
2020-09-10 07:00:00 11.4 5 Sudeste 6 Sudeste 0 -- -- 100
2020-09-10 06:00:00 10.6 5 Sudeste 7 Sudeste 0 -- -- 100
2020-09-10 05:00:00 10.6 0 Calma 8 Este 0 -- -- 100
2020-09-10 04:00:00 11.3 0 Calma 6 Este 0.2 -- -- 100
2020-09-10 03:00:00 12 3 Este 10 Sudeste 0 -- -- 99
2020-09-10 02:00:00 12.8 7 Sudeste 9 Sudeste 0 -- -- 99
2020-09-10 01:00:00 14.1 0 Calma 6 Sudeste 0 -- -- 99
2020-09-10 00:00:00 14.3 3 Este 9 Sudeste 0 -- -- 99
2020-09-09 23:00:00 14.2 4 Este 6 Sudeste 0 -- -- 98
2020-09-09 22:00:00 14.3 2 Este 5 Sudeste 0 -- -- 97
2020-09-09 21:00:00 15.3 2 Sudeste 6 Sudeste 0.2 -- -- 95
2020-09-09 20:00:00 15.8 4 Sudeste 21 Sudeste 0.8 -- -- 95
2020-09-09 19:00:00 17.6 11 Sudeste 19 Este 0 -- -- 84
2020-09-09 18:00:00 18 12 Sudeste 19 Sudeste 0 -- -- 83
2020-09-09 17:00:00 18.2 2 Sudeste 13 Este 0.4 -- -- 86
2020-09-09 16:00:00 17.8 8 Este 12 Este 0.2 -- -- 87
2020-09-09 15:00:00 16.7 2 Oeste 10 Noroeste 0.6 -- -- 94
2020-09-09 14:00:00 16.4 5 Oeste 10 Oeste 4 -- -- 95
2020-09-09 13:00:00 16.4 10 Oeste 15 Noroeste 4.8 -- -- 93
2020-09-09 12:00:00 16.8 6 Noroeste 13 Norte 0.4 -- -- 89
2020-09-09 11:00:00 16.6 5 Noroeste 8 Noroeste 0 -- -- 93
2020-09-09 10:00:00 15.2 3 Noroeste 5 Noroeste 0.4 -- -- 99
2020-09-09 09:00:00 13.9 0 Calma 5 Norte 0 -- -- 99
2020-09-09 08:00:00 13.6 3 Sudeste 6 Oeste 0 -- -- 97
2020-09-09 07:00:00 14.1 2 Nordeste 5 Sudeste 0.4 -- -- 96
2020-09-09 06:00:00 14.8 4 Oeste 17 Este 0.4 -- -- 93
2020-09-09 05:00:00 15.3 13 Este 21 Este 0.4 -- -- 89
2020-09-09 04:00:00 12.3 0 Calma 6 Sudeste 0 -- -- 97
2020-09-09 03:00:00 11.6 4 Sudeste 7 Sudeste 0 -- -- 97
2020-09-09 02:00:00 11.8 3 Este 5 Sudeste 0 -- -- 97
2020-09-09 01:00:00 11.8 4 Sudeste 6 Sudeste 0 -- -- 96
2020-09-09 00:00:00 11.9 2 Sudeste 6 Sudeste 0 -- -- 96
2020-09-08 23:00:00 12.8 5 Sudeste 12 Este 0 -- -- 93
2020-09-08 22:00:00 15.4 7 Sudeste 17 Este 0 -- -- 80
2020-09-08 21:00:00 15.7 3 Sudeste 19 Este 0.2 -- -- 84
2020-09-08 20:00:00 17.1 10 Este 18 Este 0 -- -- 76
2020-09-08 19:00:00 17.5 0 Calma 26 Sudeste 1 -- -- 88
2020-09-08 18:00:00 21.4 16 Sudeste 23 Sudeste 0 -- -- 54
2020-09-08 17:00:00 21.9 12 Este 26 Este 0 -- -- 49
2020-09-08 16:00:00 23.7 11 Sudeste 28 Sudeste 0 -- -- 43
2020-09-08 15:00:00 24.2 12 Este 32 Este 0 -- -- 40
2020-09-08 14:00:00 23.4 18 Sudeste 32 Nordeste 0 -- -- 38
2020-09-08 13:00:00 21.6 11 Oeste 19 Noroeste 0 -- -- 44
2020-09-08 12:00:00 18.6 11 Oeste 18 Noroeste 0 -- -- 54
2020-09-08 11:00:00 16.6 11 Oeste 17 Oeste 0 -- -- 61
2020-09-08 10:00:00 14.6 14 Noroeste 19 Noroeste 0 -- -- 67
2020-09-08 09:00:00 12 9 Noroeste 15 Noroeste 0 -- -- 84
2020-09-08 08:00:00 10.8 9 Noroeste 14 Noroeste 0 -- -- 93
2020-09-08 07:00:00 9.7 6 Noroeste 10 Norte 0 -- -- 99
2020-09-08 06:00:00 6.7 3 Norte 6 Noroeste 0 -- -- 96
2020-09-08 05:00:00 6.1 5 Sudeste 6 Sudeste 0 -- -- 95
2020-09-08 04:00:00 6.5 5 Sudeste 6 Sudeste 0 -- -- 94
2020-09-08 03:00:00 7.8 4 Sudeste 6 Sudeste 0 -- -- 93
2020-09-08 02:00:00 10 3 Sudeste 6 Nordeste 0 -- -- 89
2020-09-08 01:00:00 11.9 0 Calma 6 Este 0 -- -- 89
2020-09-08 00:00:00 12.5 4 Nordeste 13 Sudeste 0 -- -- 86
2020-09-07 23:00:00 14.6 7 Sudeste 23 Sudeste 0 -- -- 81
2020-09-07 22:00:00 16.6 12 Sudeste 22 Sur 0 -- -- 78
2020-09-07 21:00:00 16.6 8 Sur 24 Sudoeste 0 -- -- 75
2020-09-07 20:00:00 18.2 12 Sudoeste 23 Sur 0 -- -- 64
2020-09-07 19:00:00 20.5 6 Sudoeste 22 Sudoeste 0 -- -- 52
2020-09-07 18:00:00 21.8 10 Sudoeste 27 Sudoeste 0 -- -- 49
2020-09-07 17:00:00 24.1 10 Noroeste 22 Noroeste 0 -- -- 33
2020-09-07 16:00:00 23.2 10 Oeste 24 Oeste 0 -- -- 35
2020-09-07 15:00:00 21.9 14 Noroeste 32 Noroeste 0 -- -- 42
2020-09-07 14:00:00 20.3 16 Noroeste 27 Noroeste 0 -- -- 47
2020-09-07 13:00:00 20 14 Noroeste 26 Noroeste 0 -- -- 48
2020-09-07 12:00:00 18.1 14 Noroeste 23 Oeste 0 -- -- 52
2020-09-07 11:00:00 15.9 10 Noroeste 15 Noroeste 0 -- -- 59
2020-09-07 10:00:00 14 9 Noroeste 21 Oeste 0 -- -- 67
2020-09-07 09:00:00 12.5 7 Noroeste 13 Noroeste 0 -- -- 73
2020-09-07 08:00:00 10.7 5 Noroeste 14 Noroeste 0 -- -- 81
2020-09-07 07:00:00 11.6 5 Oeste 24 Oeste 0 -- -- 77
2020-09-07 06:00:00 13 18 Noroeste 26 Noroeste 0 -- -- 72
2020-09-07 05:00:00 13.7 9 Oeste 19 Oeste 0 -- -- 69
2020-09-07 04:00:00 13.5 10 Noroeste 21 Oeste 0 -- -- 70
2020-09-07 03:00:00 13.8 8 Oeste 29 Oeste 0 -- -- 69
2020-09-07 02:00:00 15.3 13 Noroeste 21 Noroeste 0 -- -- 63
2020-09-07 01:00:00 15.9 10 Noroeste 20 Oeste 0 -- -- 61
2020-09-07 00:00:00 15.8 4 Este 8 Sur 0 -- -- 81
2020-09-06 23:00:00 17.9 4 Noroeste 10 Sudeste 0 -- -- 75
2020-09-06 22:00:00 16.5 7 Sudeste 10 Sudeste 0 -- -- 74
2020-09-06 21:00:00 19.1 3 Nordeste 14 Sudoeste 0 -- -- 58
2020-09-06 20:00:00 23.6 11 Noroeste 29 Oeste 0 -- -- 46
2020-09-06 19:00:00 24.7 22 Noroeste 33 Noroeste 0 -- -- 44
2020-09-06 18:00:00 25.5 23 Noroeste 36 Noroeste 0 -- -- 43
2020-09-06 17:00:00 25.5 23 Noroeste 35 Noroeste 0 -- -- 43
2020-09-06 16:00:00 25.5 21 Noroeste 32 Oeste 0 -- -- 45
2020-09-06 15:00:00 24.9 18 Noroeste 31 Oeste 0 -- -- 47
2020-09-06 14:00:00 23.6 17 Noroeste 27 Oeste 0 -- -- 51
2020-09-06 13:00:00 22.4 16 Noroeste 26 Noroeste 0 -- -- 55
2020-09-06 12:00:00 20.6 18 Oeste 28 Oeste 0 -- -- 60
2020-09-06 11:00:00 18.8 18 Noroeste 28 Oeste 0 -- -- 68
2020-09-06 10:00:00 17.2 21 Noroeste 31 Oeste 0 -- -- 74
2020-09-06 09:00:00 15.9 21 Noroeste 29 Noroeste 0 -- -- 82
2020-09-06 08:00:00 14.2 11 Noroeste 16 Noroeste 0 -- -- 91
2020-09-06 07:00:00 14.7 12 Noroeste 19 Oeste 0 -- -- 91
2020-09-06 06:00:00 16 13 Noroeste 18 Noroeste 0 -- -- 89
2020-09-06 05:00:00 16.2 9 Noroeste 16 Noroeste 0 -- -- 93
2020-09-06 04:00:00 13.8 8 Noroeste 12 Noroeste 0 -- -- 94
2020-09-06 03:00:00 13.1 3 Sudeste 8 Sudeste 0 -- -- 92
2020-09-06 02:00:00 14.3 0 Calma 9 Sudeste 0 -- -- 87
2020-09-06 01:00:00 16.7 0 Calma 16 Este 0 -- -- 84
2020-09-06 00:00:00 18.3 8 Este 23 Este 0 -- -- 80
2020-09-05 23:00:00 18.3 16 Este 23 Este 0 -- -- 90
2020-09-05 22:00:00 18.8 15 Este 23 Este 0 -- -- 86
2020-09-05 21:00:00 19.9 13 Sudeste 20 Sudeste 0 -- -- 78
2020-09-05 20:00:00 22 10 Sur 23 Sudoeste 0 -- -- 73
2020-09-05 19:00:00 24.2 14 Sudoeste 25 Sudoeste 0 -- -- 66
2020-09-05 18:00:00 26.4 14 Sudoeste 24 Sudoeste 0 -- -- 59
2020-09-05 17:00:00 29.3 12 Oeste 23 Noroeste 0 -- -- 38
2020-09-05 16:00:00 29.6 6 Oeste 19 Noroeste 0 -- -- 42
2020-09-05 15:00:00 28.6 9 Sur 24 Sur 0 -- -- 44
2020-09-05 14:00:00 28.2 7 Noroeste 23 Sudeste 0 -- -- 44
2020-09-05 13:00:00 26.5 9 Este 18 Sudeste 0 -- -- 49
2020-09-05 12:00:00 25.3 7 Sur 17 Sudoeste 0 -- -- 51
2020-09-05 11:00:00 23.6 7 Sudeste 15 Sur 0 -- -- 56
2020-09-05 10:00:00 21 9 Sur 19 Sur 0 -- -- 75
2020-09-05 09:00:00 18.3 6 Sudeste 12 Sudeste 0 -- -- 93
2020-09-05 08:00:00 13.7 6 Sudeste 10 Sudeste 0 -- -- 99
2020-09-05 07:00:00 13.3 5 Sudeste 10 Sudeste 0 -- -- 99
2020-09-05 06:00:00 13.2 8 Sudeste 10 Sudeste 0 -- -- 97
2020-09-05 05:00:00 14.8 6 Sudeste 15 Este 0 -- -- 92
2020-09-05 04:00:00 15.9 6 Este 18 Este 0 -- -- 92
2020-09-05 03:00:00 16.6 13 Este 18 Este 0 -- -- 93
2020-09-05 02:00:00 16.7 15 Este 20 Sudeste 0 -- -- 92
2020-09-05 01:00:00 17 13 Este 20 Este 0 -- -- 91
2020-09-05 00:00:00 17.4 14 Este 21 Sudeste 0 -- -- 89
2020-09-04 23:00:00 18 14 Este 18 Sudeste 0 -- -- 87
2020-09-04 22:00:00 18.8 14 Este 21 Este 0 -- -- 79
2020-09-04 21:00:00 19.8 12 Sudeste 21 Sudeste 0 -- -- 71
2020-09-04 20:00:00 21.8 13 Sudeste 26 Sudeste 0 -- -- 66
2020-09-04 19:00:00 23.8 13 Sur 28 Sudeste 0 -- -- 63
2020-09-04 18:00:00 25.5 16 Sur 26 Sur 0 -- -- 57
2020-09-04 17:00:00 27.9 8 Sur 21 Sudoeste 0 -- -- 42
2020-09-04 16:00:00 28 7 Sur 26 Sur 0 -- -- 40
2020-09-04 15:00:00 27.6 9 Sur 25 Sudeste 0 -- -- 41
2020-09-04 14:00:00 26.8 9 Sur 24 Sur 0 -- -- 45
2020-09-04 13:00:00 26.2 11 Sur 24 Sudeste 0 -- -- 45
2020-09-04 12:00:00 25.6 9 Sudeste 23 Sudeste 0 -- -- 51
2020-09-04 11:00:00 23.7 9 Este 18 Sudeste 0 -- -- 59
2020-09-04 10:00:00 20.5 11 Sudeste 18 Sudeste 0 -- -- 77
2020-09-04 09:00:00 16.8 10 Sudeste 14 Sudeste 0 -- -- 100
2020-09-04 08:00:00 11.1 6 Sudeste 9 Sudeste 0 -- -- 100
2020-09-04 07:00:00 11.2 8 Sudeste 12 Sudeste 0 -- -- 99
2020-09-04 06:00:00 11.5 9 Sudeste 13 Sudeste 0 -- -- 99
2020-09-04 05:00:00 11.3 9 Sudeste 11 Sudeste 0 -- -- 98
2020-09-04 04:00:00 11.5 8 Sudeste 10 Sudeste 0 -- -- 97
2020-09-04 03:00:00 12.5 6 Sudeste 10 Sudeste 0 -- -- 96
2020-09-04 02:00:00 13.9 7 Sudeste 11 Sudeste 0 -- -- 94
2020-09-04 01:00:00 16.3 5 Sudeste 15 Este 0 -- -- 92
2020-09-04 00:00:00 17.8 10 Este 18 Este 0 -- -- 94
2020-09-03 23:00:00 17.9 10 Sudeste 21 Este 0 -- -- 93
2020-09-03 22:00:00 18.2 14 Este 21 Sudeste 0 -- -- 89
2020-09-03 21:00:00 19 13 Sudeste 23 Sur 0 -- -- 84
2020-09-03 20:00:00 20.7 14 Sur 25 Sudoeste 0 -- -- 73
2020-09-03 19:00:00 22.7 12 Sur 28 Sudoeste 0 -- -- 64
2020-09-03 18:00:00 24.5 13 Sudoeste 26 Sur 0 -- -- 52
2020-09-03 17:00:00 26 14 Sudoeste 28 Sudoeste 0 -- -- 45
2020-09-03 16:00:00 28.4 6 Noroeste 22 Oeste 0 -- -- 32
2020-09-03 15:00:00 27.4 9 Noroeste 23 Oeste 0 -- -- 32
2020-09-03 14:00:00 26 14 Noroeste 23 Noroeste 0 -- -- 32
2020-09-03 13:00:00 24.9 10 Noroeste 20 Noroeste 0 -- -- 37
2020-09-03 12:00:00 23.5 10 Noroeste 17 Noroeste 0 -- -- 40
2020-09-03 11:00:00 21.7 11 Noroeste 15 Noroeste 0 -- -- 44
2020-09-03 10:00:00 18.8 8 Noroeste 12 Noroeste 0 -- -- 64
2020-09-03 09:00:00 13.8 0 Calma 5 Sudeste 0 -- -- 100
2020-09-03 08:00:00 10.2 4 Sudeste 6 Sudeste 0 -- -- 100
2020-09-03 07:00:00 10.3 4 Sudeste 8 Sudeste 0 -- -- 99
2020-09-03 06:00:00 10.9 6 Sudeste 8 Sudeste 0 -- -- 99
2020-09-03 05:00:00 11.1 5 Sudeste 10 Sudeste 0 -- -- 99
2020-09-03 04:00:00 11.5 4 Sudeste 9 Sudeste 0 -- -- 98
2020-09-03 03:00:00 12.1 9 Sudeste 10 Sudeste 0 -- -- 98
2020-09-03 02:00:00 12.2 8 Sudeste 12 Sudeste 0 -- -- 97
2020-09-03 01:00:00 12.7 8 Sudeste 13 Sudeste 0 -- -- 96
2020-09-03 00:00:00 13.6 8 Sudeste 14 Sudeste 0 -- -- 94
2020-09-02 23:00:00 14.6 7 Sudeste 11 Sudeste 0 -- -- 91
2020-09-02 22:00:00 15.8 7 Sudeste 13 Sur 0 -- -- 86
2020-09-02 21:00:00 17.7 9 Sudeste 22 Sur 0 -- -- 78
2020-09-02 20:00:00 19.8 13 Sur 24 Sudoeste 0 -- -- 68
2020-09-02 19:00:00 21.4 12 Sur 23 Sur 0 -- -- 61
2020-09-02 18:00:00 22.6 10 Sudoeste 21 Sudoeste 0 -- -- 53
2020-09-02 17:00:00 24.4 12 Sudoeste 30 Oeste 0 -- -- 43
2020-09-02 16:00:00 24.7 22 Noroeste 36 Noroeste 0 -- -- 36
2020-09-02 15:00:00 23.8 13 Noroeste 26 Noroeste 0 -- -- 42
2020-09-02 14:00:00 22.9 8 Sudoeste 24 Sudoeste 0 -- -- 47
2020-09-02 13:00:00 22 9 Noroeste 31 Sur 0 -- -- 53
2020-09-02 12:00:00 20.1 5 Norte 19 Noroeste 0 -- -- 64
2020-09-02 11:00:00 17.3 9 Noroeste 15 Noroeste 0 -- -- 75
2020-09-02 10:00:00 17.2 8 Oeste 13 Noroeste 0 -- -- 79
2020-09-02 09:00:00 13 2 Este 5 Sudeste 0 -- -- 99
2020-09-02 08:00:00 11.2 4 Este 7 Sudeste 0 -- -- 100
2020-09-02 07:00:00 9.8 4 Este 8 Sudeste 0 -- -- 99
2020-09-02 06:00:00 10.5 5 Sudeste 10 Sudeste 0 -- -- 99
2020-09-02 05:00:00 10.4 6 Sudeste 9 Sudeste 0 -- -- 98
2020-09-02 04:00:00 11.6 5 Sudeste 9 Sudeste 0 -- -- 98
2020-09-02 03:00:00 11.5 6 Sudeste 9 Sudeste 0 -- -- 98
2020-09-02 02:00:00 11.5 3 Este 10 Sudeste 0 -- -- 97
2020-09-02 01:00:00 12.1 5 Sudeste 11 Sudeste 0 -- -- 95
2020-09-02 00:00:00 13.4 5 Sudeste 8 Sudeste 0 -- -- 92
2020-09-01 23:00:00 15.6 8 Sudeste 12 Sudeste 0 -- -- 88
2020-09-01 22:00:00 17 4 Sudeste 12 Sur 0 -- -- 84
2020-09-01 21:00:00 18.5 6 Sur 12 Sudoeste 0 -- -- 80
2020-09-01 20:00:00 19.7 7 Sur 22 Sur 0 -- -- 72
2020-09-01 19:00:00 21.7 4 Oeste 24 Noroeste 0 -- -- 35
2020-09-01 18:00:00 22.3 16 Noroeste 22 Noroeste 0 -- -- 36
2020-09-01 17:00:00 23.7 10 Noroeste 21 Oeste 0 -- -- 37
2020-09-01 16:00:00 23.4 15 Noroeste 28 Noroeste 0 -- -- 50
2020-09-01 15:00:00 23.2 7 Noroeste 20 Oeste 0 -- -- 44
2020-09-01 14:00:00 22.8 10 Sur 21 Sudoeste 0 -- -- 47
2020-09-01 13:00:00 22.7 11 Sur 22 Sudoeste 0 -- -- 48
2020-09-01 12:00:00 22.3 9 Sur 18 Sur 0 -- -- 41
2020-09-01 11:00:00 21 7 Noroeste 14 Oeste 0 -- -- 43
2020-09-01 10:00:00 18.6 7 Noroeste 9 Noroeste 0 -- -- 51
2020-09-01 09:00:00 11.7 3 Sudeste 5 Sudeste 0 -- -- 81
2020-09-01 08:00:00 7.4 4 Sudeste 8 Sudeste 0 -- -- 94
2020-09-01 07:00:00 7.1 5 Sudeste 7 Sudeste 0 -- -- 93
2020-09-01 06:00:00 7.4 6 Sudeste 8 Sudeste 0 -- -- 92
2020-09-01 05:00:00 8.7 5 Sudeste 8 Sudeste 0 -- -- 91
2020-09-01 04:00:00 9.4 7 Sudeste 12 Sudeste 0 -- -- 91
2020-09-01 03:00:00 10.5 9 Sudeste 13 Sudeste 0 -- -- 88
2020-09-01 02:00:00 11.8 10 Sudeste 13 Sudeste 0 -- -- 86
2020-09-01 01:00:00 12.9 9 Sudeste 13 Sudeste 0 -- -- 81
2020-09-01 00:00:00 12.6 5 Sudeste 12 Este 0 -- -- 80
2020-08-31 23:00:00 10.8 8 Sudeste 11 Sudeste 0 -- -- 75
2020-08-31 22:00:00 11.2 5 Sudeste 7 Nordeste 0 -- -- 65
2020-08-31 21:00:00 14 3 Nordeste 7 Sudeste 0 -- -- 50
2020-08-31 20:00:00 20.9 5 Oeste 21 Noroeste 0 -- -- 33
2020-08-31 19:00:00 22.4 13 Noroeste 24 Noroeste 0 -- -- 29
2020-08-31 18:00:00 22.6 15 Noroeste 28 Noroeste 0 -- -- 30
2020-08-31 17:00:00 22.4 14 Oeste 31 Oeste 0 -- -- 34
2020-08-31 16:00:00 22 15 Oeste 29 Noroeste 0 -- -- 35
2020-08-31 15:00:00 20.8 20 Noroeste 31 Oeste 0 -- -- 39
2020-08-31 14:00:00 19.8 18 Noroeste 27 Oeste 0 -- -- 46
2020-08-31 13:00:00 18.5 19 Noroeste 26 Oeste 0 -- -- 50
2020-08-31 12:00:00 16.8 19 Noroeste 27 Noroeste 0 -- -- 56
2020-08-31 11:00:00 15.5 19 Noroeste 29 Noroeste 0 -- -- 61
2020-08-31 10:00:00 13.6 14 Noroeste 26 Norte 0 -- -- 68
2020-08-31 09:00:00 11.3 16 Noroeste 25 Noroeste 0 -- -- 78
2020-08-31 08:00:00 7.7 7 Noroeste 13 Noroeste 0 -- -- 93
2020-08-31 07:00:00 8 9 Noroeste 14 Noroeste 0 -- -- 90
2020-08-31 06:00:00 5.2 2 Nordeste 7 Sudeste 0 -- -- 95
2020-08-31 05:00:00 5.6 0 Calma 8 Sudeste 0 -- -- 94
2020-08-31 04:00:00 6 5 Sudeste 8 Sudeste 0 -- -- 92
2020-08-31 03:00:00 6.9 5 Sudeste 10 Sudeste 0 -- -- 90
2020-08-31 02:00:00 8.2 5 Este 14 Sudeste 0 -- -- 87
2020-08-31 01:00:00 8.7 10 Sudeste 14 Sudeste 0 -- -- 81
2020-08-31 00:00:00 10.2 5 Sudeste 10 Sudeste 0 -- -- 75
2020-08-30 23:00:00 12.2 4 Sudeste 6 Sudeste 0 -- -- 69
2020-08-30 22:00:00 13.5 4 Sudeste 6 Sudeste 0 -- -- 63
2020-08-30 21:00:00 16.6 0 Calma 23 Noroeste 0 -- -- 51
2020-08-30 20:00:00 20 15 Noroeste 27 Noroeste 0 -- -- 41
2020-08-30 19:00:00 21.4 14 Noroeste 24 Oeste 0 -- -- 38
2020-08-30 18:00:00 22.2 9 Noroeste 25 Noroeste 0 -- -- 37
2020-08-30 17:00:00 21.4 14 Noroeste 27 Oeste 0 -- -- 37
2020-08-30 16:00:00 21.4 10 Noroeste 26 Oeste 0 -- -- 39
2020-08-30 15:00:00 20.4 14 Noroeste 30 Noroeste 0 -- -- 42
2020-08-30 14:00:00 19.1 17 Noroeste 29 Oeste 0 -- -- 49
2020-08-30 13:00:00 17.9 18 Noroeste 30 Noroeste 0 -- -- 52
2020-08-30 12:00:00 16.2 24 Noroeste 30 Oeste 0 -- -- 58
2020-08-30 11:00:00 14.3 24 Noroeste 34 Oeste 0 -- -- 65
2020-08-30 10:00:00 12.8 23 Noroeste 29 Noroeste 0 -- -- 71
2020-08-30 09:00:00 11.6 17 Noroeste 26 Noroeste 0 -- -- 78
2020-08-30 08:00:00 8.5 3 Nordeste 16 Oeste 0 -- -- 91
2020-08-30 07:00:00 9.9 13 Noroeste 24 Oeste 0 -- -- 87
2020-08-30 06:00:00 10.6 13 Oeste 29 Noroeste 0 -- -- 85
2020-08-30 05:00:00 10.8 17 Noroeste 27 Noroeste 0 -- -- 87
2020-08-30 04:00:00 7.7 6 Sudeste 9 Sudeste 0 -- -- 93
2020-08-30 03:00:00 8.6 6 Sudeste 13 Sudeste 0 -- -- 89
2020-08-30 02:00:00 11.1 5 Noroeste 14 Sudoeste 0 -- -- 80
2020-08-30 01:00:00 11.6 4 Sudeste 20 Oeste 0 -- -- 78
2020-08-30 00:00:00 14.6 11 Oeste 25 Oeste 0 -- -- 64
2020-08-29 23:00:00 15.4 12 Oeste 22 Oeste 0 -- -- 67
2020-08-29 22:00:00 14.2 7 Sur 18 Sur 0 -- -- 85
2020-08-29 21:00:00 15.1 9 Sur 27 Sur 0 -- -- 76
2020-08-29 20:00:00 17 10 Sudoeste 23 Sudoeste 0 -- -- 67
2020-08-29 19:00:00 19.5 11 Sudoeste 21 Sur 0 -- -- 60
2020-08-29 18:00:00 19.9 10 Sudoeste 24 Noroeste 0 -- -- 54
2020-08-29 17:00:00 20.8 18 Noroeste 33 Noroeste 0 -- -- 45
2020-08-29 16:00:00 19.5 8 Oeste 28 Noroeste 0.2 -- -- 54
2020-08-29 15:00:00 18.5 19 Oeste 28 Noroeste 0 -- -- 52
2020-08-29 14:00:00 18.5 18 Noroeste 36 Oeste 0 -- -- 53
2020-08-29 13:00:00 17.4 23 Oeste 39 Noroeste 0 -- -- 58
2020-08-29 12:00:00 16.4 27 Noroeste 37 Noroeste 0 -- -- 61
2020-08-29 11:00:00 14 18 Noroeste 27 Noroeste 0 -- -- 76
2020-08-29 10:00:00 13.5 10 Noroeste 17 Noroeste 0 -- -- 84
2020-08-29 09:00:00 13.3 0 Calma 13 Oeste 0 -- -- 92
2020-08-29 08:00:00 13.1 8 Noroeste 16 Oeste 1.2 -- -- 85
2020-08-29 07:00:00 14.4 6 Oeste 23 Oeste 0 -- -- 73
2020-08-29 06:00:00 14.5 14 Noroeste 23 Oeste 0 -- -- 75
2020-08-29 05:00:00 15.6 14 Noroeste 20 Oeste 0 -- -- 72
2020-08-29 04:00:00 17 12 Noroeste 18 Noroeste 0 -- -- 70
2020-08-29 03:00:00 18.1 8 Noroeste 18 Noroeste 0 -- -- 68
2020-08-29 02:00:00 18.4 4 Sudeste 13 Sudeste 0 -- -- 88
2020-08-29 01:00:00 19.6 8 Sudeste 15 Sudeste 0 -- -- 86
2020-08-29 00:00:00 20.1 5 Oeste 11 Sudoeste 0 -- -- 82
2020-08-28 23:00:00 20 6 Sudeste 22 Sur 0 -- -- 76
2020-08-28 22:00:00 18.6 6 Este 33 Sur 0 -- -- 83
2020-08-28 21:00:00 20.8 18 Sur 37 Sudoeste 0 -- -- 72
2020-08-28 20:00:00 22.8 12 Sudoeste 29 Sur 0 -- -- 86
2020-08-28 19:00:00 25.1 15 Sudoeste 30 Sudoeste 0 -- -- 75
2020-08-28 18:00:00 26.7 12 Sur 25 Sudoeste 0 -- -- 65
2020-08-28 17:00:00 27.8 14 Sudeste 26 Sudeste 0 -- -- 60
2020-08-28 16:00:00 28.2 9 Sudeste 20 Sudoeste 0 -- -- 58
2020-08-28 15:00:00 26.8 8 Sudoeste 25 Sudoeste 0 -- -- 64
2020-08-28 14:00:00 25.5 12 Sur 25 Sudoeste 0 -- -- 68
2020-08-28 13:00:00 24.9 5 Sur 23 Sudeste 0 -- -- 73
2020-08-28 12:00:00 24.4 12 Sur 21 Sur 0 -- -- 71
2020-08-28 11:00:00 23.2 8 Sur 19 Sur 0 -- -- 75
2020-08-28 10:00:00 22.9 11 Sudeste 18 Sudeste 0 -- -- 81
2020-08-28 09:00:00 21.1 7 Sudeste 13 Sudeste 0 -- -- 90
2020-08-28 08:00:00 18.9 8 Sudeste 14 Sudeste 0 -- -- 97
2020-08-28 07:00:00 19 8 Este 19 Este 0 -- -- 98
2020-08-28 06:00:00 19.5 11 Sudeste 20 Sudeste 0 -- -- 98
2020-08-28 05:00:00 19.7 10 Sudeste 16 Sudeste 0 -- -- 99
2020-08-28 04:00:00 18 8 Sudeste 11 Sudeste 0 -- -- 97
2020-08-28 03:00:00 19.6 5 Sudeste 16 Sudeste 0 -- -- 95
2020-08-28 02:00:00 21.2 13 Sudeste 22 Sudeste 0 -- -- 91
2020-08-28 01:00:00 21.9 15 Sudeste 24 Sudeste 0 -- -- 91
2020-08-28 00:00:00 21.4 14 Sudeste 23 Sudeste 0 -- -- 93
2020-08-27 23:00:00 21.5 17 Sudeste 26 Este 0 -- -- 94
2020-08-27 22:00:00 21.9 14 Sudeste 22 Este 0 -- -- 91
2020-08-27 21:00:00 23.1 13 Este 19 Sudeste 0 -- -- 87
2020-08-27 20:00:00 25.1 12 Sur 23 Sur 0 -- -- 77
2020-08-27 19:00:00 27.4 13 Sudoeste 25 Sudoeste 0 -- -- 67
2020-08-27 18:00:00 28.8 12 Sur 22 Sudoeste 0 -- -- 60
2020-08-27 17:00:00 29.5 11 Sur 24 Sudoeste 0 -- -- 58
2020-08-27 16:00:00 30.2 11 Sudoeste 26 Sudoeste 0 -- -- 55
2020-08-27 15:00:00 30 10 Sur 23 Sur 0 -- -- 54
2020-08-27 14:00:00 29.6 9 Sudoeste 23 Sudoeste 0 -- -- 57
2020-08-27 13:00:00 28.5 10 Sur 23 Sudeste 0 -- -- 62
2020-08-27 12:00:00 27 8 Sudeste 15 Sudeste 0 -- -- 68
2020-08-27 11:00:00 24.2 8 Sudeste 15 Sudeste 0 -- -- 79
2020-08-27 10:00:00 22.9 5 Sur 12 Sur 0 -- -- 86
2020-08-27 09:00:00 20.7 9 Sudeste 15 Sudeste 0 -- -- 96
2020-08-27 08:00:00 20.3 7 Sudeste 13 Sudeste 0 -- -- 97
2020-08-27 07:00:00 20.1 7 Sudeste 14 Sudeste 0 -- -- 100
2020-08-27 06:00:00 19.9 9 Sudeste 17 Sudeste 0 -- -- 100
2020-08-27 05:00:00 19.6 9 Sudeste 14 Sudeste 0 -- -- 100
2020-08-27 04:00:00 19.8 9 Sudeste 14 Este 0 -- -- 97
2020-08-27 03:00:00 20.1 10 Sudeste 14 Sudeste 0 -- -- 97
2020-08-27 02:00:00 20.1 11 Sudeste 17 Sudeste 0 -- -- 96
2020-08-27 01:00:00 20.4 12 Sudeste 15 Este 0 -- -- 96
2020-08-27 00:00:00 20.8 11 Sudeste 15 Este 0 -- -- 96
2020-08-26 23:00:00 21.1 11 Sudeste 19 Sudeste 0 -- -- 92
2020-08-26 22:00:00 22.4 13 Este 21 Este 0 -- -- 87
2020-08-26 21:00:00 23.4 13 Este 22 Sudeste 0 -- -- 83
2020-08-26 20:00:00 25.4 14 Sur 27 Sur 0 -- -- 74
2020-08-26 19:00:00 27.4 13 Sur 27 Sur 0 -- -- 65
2020-08-26 18:00:00 29.5 12 Sudoeste 22 Sudoeste 0 -- -- 59
2020-08-26 17:00:00 30.5 11 Sur 21 Sudoeste 0 -- -- 55
2020-08-26 16:00:00 30.8 10 Sur 21 Sur 0 -- -- 51
2020-08-26 15:00:00 30.6 9 Sudoeste 22 Sudoeste 0 -- -- 50
2020-08-26 14:00:00 29.6 9 Sur 23 Sudoeste 0 -- -- 56
2020-08-26 13:00:00 28.5 9 Sudoeste 25 Sudeste 0 -- -- 57
2020-08-26 12:00:00 27.7 6 Sur 20 Sudoeste 0 -- -- 60
2020-08-26 11:00:00 25.9 9 Sur 20 Sur 0 -- -- 65
2020-08-26 10:00:00 23.5 13 Sudeste 22 Sudeste 0 -- -- 79
2020-08-26 09:00:00 22 10 Este 17 Este 0 -- -- 90
2020-08-26 08:00:00 19.4 8 Este 19 Este 0 -- -- 98
2020-08-26 07:00:00 18.9 14 Este 18 Sudeste 0 -- -- 100
2020-08-26 06:00:00 17.1 10 Sudeste 14 Sudeste 0 -- -- 100
2020-08-26 05:00:00 15.2 7 Sudeste 9 Sudeste 0 -- -- 98
2020-08-26 04:00:00 15.7 7 Sudeste 10 Sudeste 0 -- -- 97
2020-08-26 03:00:00 16.9 8 Este 16 Sudeste 0 -- -- 96
2020-08-26 02:00:00 17.8 11 Sudeste 15 Sudeste 0 -- -- 95
2020-08-26 01:00:00 18.7 5 Sudeste 16 Este 0 -- -- 93
2020-08-26 00:00:00 20.4 14 Este 18 Este 0 -- -- 95
2020-08-25 23:00:00 20.7 13 Sudeste 20 Este 0 -- -- 92
2020-08-25 22:00:00 21.7 12 Este 20 Sudeste 0 -- -- 86
2020-08-25 21:00:00 22.9 12 Sudeste 26 Sur 0 -- -- 83
2020-08-25 20:00:00 25.1 15 Sur 29 Sur 0 -- -- 74
2020-08-25 19:00:00 27.4 12 Sur 28 Sur 0 -- -- 69
2020-08-25 18:00:00 29.7 13 Sur 26 Sur 0 -- -- 59
2020-08-25 17:00:00 31 11 Sudoeste 27 Sur 0 -- -- 48
2020-08-25 16:00:00 29.9 15 Sur 40 Oeste 0 -- -- 55
2020-08-25 15:00:00 30.1 12 Noroeste 26 Oeste 0 -- -- 44
2020-08-25 14:00:00 30.6 9 Noroeste 24 Oeste 0 -- -- 44
2020-08-25 13:00:00 29 14 Noroeste 23 Noroeste 0 -- -- 44
2020-08-25 12:00:00 27.9 7 Noroeste 17 Noroeste 0 -- -- 54
2020-08-25 11:00:00 26.3 6 Noroeste 16 Sudeste 0 -- -- 62
2020-08-25 10:00:00 24.6 8 Sur 15 Sur 0 -- -- 72
2020-08-25 09:00:00 21.7 9 Sudeste 14 Sur 0 -- -- 88
2020-08-25 08:00:00 16.6 3 Este 9 Sudeste 0 -- -- 100
2020-08-25 07:00:00 15.4 5 Sudeste 8 Este 0 -- -- 99
2020-08-25 06:00:00 14.7 3 Este 12 Sudeste 0 -- -- 98
2020-08-25 05:00:00 13.9 7 Sudeste 10 Sudeste 0 -- -- 97
2020-08-25 04:00:00 14 7 Sudeste 10 Sudeste 0 -- -- 95
2020-08-25 03:00:00 13.8 5 Sudeste 12 Sudeste 0 -- -- 91
2020-08-25 02:00:00 13.8 7 Sudeste 13 Sudeste 0 -- -- 88
2020-08-25 01:00:00 14.4 8 Sudeste 12 Sudeste 0 -- -- 85
2020-08-25 00:00:00 14.9 8 Sudeste 11 Sudeste 0 -- -- 84
2020-08-24 23:00:00 15.9 5 Sudeste 15 Sudeste 0 -- -- 80
2020-08-24 22:00:00 17.6 8 Sudeste 15 Este 0 -- -- 72
2020-08-24 21:00:00 21.1 6 Sudeste 17 Sur 0 -- -- 59
2020-08-24 20:00:00 24 11 Sudoeste 21 Sudoeste 0 -- -- 51
2020-08-24 19:00:00 26.7 8 Sudoeste 23 Noroeste 0 -- -- 42
2020-08-24 18:00:00 28.1 15 Noroeste 24 Noroeste 0 -- -- 34
2020-08-24 17:00:00 27.9 16 Noroeste 26 Oeste 0 -- -- 34
2020-08-24 16:00:00 27.2 18 Noroeste 27 Noroeste 0 -- -- 36
2020-08-24 15:00:00 26.7 15 Noroeste 25 Noroeste 0 -- -- 37
2020-08-24 14:00:00 24.9 14 Noroeste 23 Noroeste 0 -- -- 44
2020-08-24 13:00:00 23.6 11 Noroeste 21 Noroeste 0 -- -- 49
2020-08-24 12:00:00 22.1 10 Noroeste 19 Noroeste 0 -- -- 52
2020-08-24 11:00:00 19.5 13 Noroeste 21 Oeste 0 -- -- 63
2020-08-24 10:00:00 17.7 13 Noroeste 21 Oeste 0 -- -- 72
2020-08-24 09:00:00 15.4 14 Noroeste 18 Noroeste 0 -- -- 83
2020-08-24 08:00:00 10.3 0 Calma 4 Sudeste 0 -- -- 99
2020-08-24 07:00:00 10.4 2 Sudeste 5 Sudeste 0 -- -- 97
2020-08-24 06:00:00 11.4 0 Calma 5 Sudeste 0 -- -- 96
2020-08-24 05:00:00 12.9 3 Sudeste 5 Sudeste 0 -- -- 96
2020-08-24 04:00:00 14.8 4 Este 6 Nordeste 0 -- -- 95
2020-08-24 03:00:00 17.2 0 Calma 6 Este 0 -- -- 94
2020-08-24 02:00:00 19 5 Nordeste 21 Sudoeste 0 -- -- 94
2020-08-24 01:00:00 19.8 11 Sur 24 Sudoeste 0 -- -- 92
2020-08-24 00:00:00 19.9 12 Sur 25 Sur 0 -- -- 92
2020-08-23 23:00:00 20 12 Sur 22 Sur 0 -- -- 91
2020-08-23 22:00:00 20.1 9 Sudeste 17 Sudeste 0 -- -- 89
2020-08-23 21:00:00 21.1 11 Sudeste 23 Sur 0 -- -- 83
2020-08-23 20:00:00 23.4 11 Sur 27 Sur 0 -- -- 71
2020-08-23 19:00:00 24.9 14 Sur 26 Sudoeste 0 -- -- 59
2020-08-23 18:00:00 27.7 9 Sudoeste 27 Oeste 0 -- -- 46
2020-08-23 17:00:00 28 15 Noroeste 29 Noroeste 0 -- -- 42
2020-08-23 16:00:00 27.6 16 Noroeste 31 Noroeste 0 -- -- 43
2020-08-23 15:00:00 26.6 21 Noroeste 30 Oeste 0 -- -- 44
2020-08-23 14:00:00 24.9 22 Noroeste 33 Noroeste 0 -- -- 44
2020-08-23 13:00:00 24.5 18 Noroeste 28 Oeste 0 -- -- 43
2020-08-23 12:00:00 22.8 15 Noroeste 24 Oeste 0 -- -- 50
2020-08-23 11:00:00 20.8 16 Noroeste 26 Oeste 0 -- -- 57
2020-08-23 10:00:00 19 17 Noroeste 23 Oeste 0 -- -- 66
2020-08-23 09:00:00 16.7 12 Noroeste 18 Noroeste 0 -- -- 80
2020-08-23 08:00:00 12.9 4 Sudeste 7 Sudeste 0 -- -- 98
2020-08-23 07:00:00 13.6 3 Sudeste 7 Sudeste 0 -- -- 97
2020-08-23 06:00:00 14.4 5 Sudeste 9 Sudeste 0 -- -- 98
2020-08-23 05:00:00 15.6 4 Sudeste 6 Sudeste 0 -- -- 96
2020-08-23 04:00:00 17.5 2 Norte 6 Norte 0 -- -- 97
2020-08-23 03:00:00 19.9 8 Sur 17 Sur 0 -- -- 95
2020-08-23 02:00:00 20.5 8 Sur 17 Sur 0 -- -- 95
2020-08-23 01:00:00 20.2 8 Este 15 Sudeste 0 -- -- 100
2020-08-23 00:00:00 18.3 6 Sudeste 11 Sudeste 0 -- -- 96
2020-08-22 23:00:00 19.5 6 Sudeste 15 Este 0 -- -- 92
2020-08-22 22:00:00 21.5 11 Este 17 Sur 0 -- -- 90
2020-08-22 21:00:00 23 12 Sur 23 Sudoeste 0 -- -- 81
2020-08-22 20:00:00 25.8 11 Sudoeste 21 Sudoeste 0 -- -- 65
2020-08-22 19:00:00 27.5 11 Sudoeste 27 Oeste 0 -- -- 60
2020-08-22 18:00:00 30.3 14 Oeste 38 Oeste 0 -- -- 40
2020-08-22 17:00:00 30.1 21 Noroeste 34 Oeste 0 -- -- 38
2020-08-22 16:00:00 29.9 18 Noroeste 32 Noroeste 0 -- -- 35
2020-08-22 15:00:00 29.5 19 Noroeste 31 Noroeste 0 -- -- 35
2020-08-22 14:00:00 29.3 17 Noroeste 29 Oeste 0 -- -- 42
2020-08-22 13:00:00 28 14 Noroeste 24 Oeste 0 -- -- 50
2020-08-22 12:00:00 26.1 12 Noroeste 22 Oeste 0 -- -- 57
2020-08-22 11:00:00 26.5 8 Sur 19 Oeste 0 -- -- 59
2020-08-22 10:00:00 23.4 5 Noroeste 12 Noroeste 0 -- -- 68
2020-08-22 09:00:00 20 3 Sudeste 5 Sudeste 0 -- -- 100
2020-08-22 08:00:00 18.9 2 Este 6 Este 0 -- -- 100
2020-08-22 07:00:00 17.5 3 Sudeste 8 Sudeste 0 -- -- 99
2020-08-22 06:00:00 17.2 5 Sudeste 8 Sudeste 0 -- -- 99
2020-08-22 05:00:00 17.2 5 Sudeste 6 Sudeste 0 -- -- 97
2020-08-22 04:00:00 18 4 Sudeste 8 Sudeste 0 -- -- 97
2020-08-22 03:00:00 19.3 7 Sudeste 13 Este 0 -- -- 96
2020-08-22 02:00:00 20.7 10 Sudeste 19 Sudeste 0 -- -- 95
2020-08-22 01:00:00 21 14 Sudeste 18 Sudeste 0 -- -- 96
2020-08-22 00:00:00 21.6 13 Sudeste 17 Sudeste 0 -- -- 93